sensor_id;sensor_type;location;lat;lon;timestamp;P1;durP1;ratioP1;P2;durP2;ratioP2
727;SDS011;347;48.780;9.158;2023-09-08T00:01:54;14.50;;;13.37;;
727;SDS011;347;48.780;9.158;2023-09-08T00:04:20;13.07;;;12.17;;
727;SDS011;347;48.780;9.158;2023-09-08T00:06:49;13.27;;;12.23;;
727;SDS011;347;48.780;9.158;2023-09-08T00:09:15;14.57;;;13.27;;
727;SDS011;347;48.780;9.158;2023-09-08T00:11:40;13.67;;;12.73;;
727;SDS011;347;48.780;9.158;2023-09-08T00:14:06;14.80;;;13.80;;
727;SDS011;347;48.780;9.158;2023-09-08T00:16:32;13.30;;;12.40;;
727;SDS011;347;48.780;9.158;2023-09-08T00:18:57;12.80;;;12.00;;
727;SDS011;347;48.780;9.158;2023-09-08T00:21:26;13.80;;;12.60;;
727;SDS011;347;48.780;9.158;2023-09-08T00:23:55;14.23;;;13.00;;
727;SDS011;347;48.780;9.158;2023-09-08T00:26:21;13.90;;;13.00;;
727;SDS011;347;48.780;9.158;2023-09-08T00:28:47;14.33;;;13.23;;
727;SDS011;347;48.780;9.158;2023-09-08T00:31:13;12.43;;;11.63;;
727;SDS011;347;48.780;9.158;2023-09-08T00:33:40;14.10;;;13.20;;
727;SDS011;347;48.780;9.158;2023-09-08T00:36:07;14.40;;;13.50;;
727;SDS011;347;48.780;9.158;2023-09-08T00:38:33;14.70;;;13.70;;
727;SDS011;347;48.780;9.158;2023-09-08T00:40:58;13.87;;;12.97;;
727;SDS011;347;48.780;9.158;2023-09-08T00:43:25;13.80;;;12.80;;
727;SDS011;347;48.780;9.158;2023-09-08T00:45:51;13.67;;;12.77;;
727;SDS011;347;48.780;9.158;2023-09-08T00:48:18;14.20;;;13.30;;
727;SDS011;347;48.780;9.158;2023-09-08T00:50:44;13.73;;;12.83;;
727;SDS011;347;48.780;9.158;2023-09-08T00:53:10;13.33;;;12.47;;
727;SDS011;347;48.780;9.158;2023-09-08T00:55:36;13.60;;;12.70;;
727;SDS011;347;48.780;9.158;2023-09-08T00:58:03;13.07;;;12.27;;
727;SDS011;347;48.780;9.158;2023-09-08T01:00:29;14.40;;;13.50;;
727;SDS011;347;48.780;9.158;2023-09-08T01:02:54;13.03;;;12.13;;
727;SDS011;347;48.780;9.158;2023-09-08T01:05:20;14.03;;;13.07;;
727;SDS011;347;48.780;9.158;2023-09-08T01:07:46;13.77;;;12.77;;
727;SDS011;347;48.780;9.158;2023-09-08T01:10:12;13.27;;;12.30;;
727;SDS011;347;48.780;9.158;2023-09-08T01:12:39;14.17;;;13.27;;
727;SDS011;347;48.780;9.158;2023-09-08T01:15:05;13.67;;;12.67;;
727;SDS011;347;48.780;9.158;2023-09-08T01:17:31;12.73;;;11.87;;
727;SDS011;347;48.780;9.158;2023-09-08T01:19:58;12.30;;;11.60;;
727;SDS011;347;48.780;9.158;2023-09-08T01:25:17;14.00;;;13.10;;
727;SDS011;347;48.780;9.158;2023-09-08T01:27:54;14.20;;;13.10;;
727;SDS011;347;48.780;9.158;2023-09-08T01:30:23;13.40;;;12.70;;
727;SDS011;347;48.780;9.158;2023-09-08T01:32:51;12.47;;;11.67;;
727;SDS011;347;48.780;9.158;2023-09-08T01:35:18;13.10;;;12.27;;
727;SDS011;347;48.780;9.158;2023-09-08T01:37:45;13.57;;;12.70;;
727;SDS011;347;48.780;9.158;2023-09-08T01:40:11;14.53;;;13.63;;
727;SDS011;347;48.780;9.158;2023-09-08T01:42:38;12.60;;;11.77;;
727;SDS011;347;48.780;9.158;2023-09-08T01:45:04;13.63;;;12.73;;
727;SDS011;347;48.780;9.158;2023-09-08T01:47:30;13.13;;;12.40;;
727;SDS011;347;48.780;9.158;2023-09-08T01:49:56;13.93;;;12.90;;
727;SDS011;347;48.780;9.158;2023-09-08T01:52:22;13.90;;;13.07;;
727;SDS011;347;48.780;9.158;2023-09-08T01:54:48;13.37;;;12.47;;
727;SDS011;347;48.780;9.158;2023-09-08T01:57:14;13.37;;;12.47;;
727;SDS011;347;48.780;9.158;2023-09-08T01:59:39;13.90;;;12.90;;
727;SDS011;347;48.780;9.158;2023-09-08T02:02:05;13.23;;;12.20;;
727;SDS011;347;48.780;9.158;2023-09-08T02:04:31;13.83;;;12.83;;
727;SDS011;347;48.780;9.158;2023-09-08T02:06:57;14.07;;;12.90;;
727;SDS011;347;48.780;9.158;2023-09-08T02:09:29;14.47;;;13.33;;
727;SDS011;347;48.780;9.158;2023-09-08T02:11:59;13.83;;;12.83;;
727;SDS011;347;48.780;9.158;2023-09-08T02:14:25;13.67;;;12.77;;
727;SDS011;347;48.780;9.158;2023-09-08T02:16:50;14.30;;;13.30;;
727;SDS011;347;48.780;9.158;2023-09-08T02:19:16;13.23;;;12.33;;
727;SDS011;347;48.780;9.158;2023-09-08T02:21:42;13.40;;;12.30;;
727;SDS011;347;48.780;9.158;2023-09-08T02:24:07;12.83;;;12.07;;
727;SDS011;347;48.780;9.158;2023-09-08T02:26:33;13.63;;;12.83;;
727;SDS011;347;48.780;9.158;2023-09-08T02:28:59;13.87;;;13.07;;
727;SDS011;347;48.780;9.158;2023-09-08T09:36:43;15.33;;;13.90;;
727;SDS011;347;48.780;9.158;2023-09-08T09:39:10;12.87;;;11.87;;
727;SDS011;347;48.780;9.158;2023-09-08T09:41:37;14.97;;;13.73;;
727;SDS011;347;48.780;9.158;2023-09-08T09:44:02;14.27;;;13.20;;
727;SDS011;347;48.780;9.158;2023-09-08T09:46:28;13.40;;;12.50;;
727;SDS011;347;48.780;9.158;2023-09-08T09:48:54;15.23;;;13.93;;
727;SDS011;347;48.780;9.158;2023-09-08T09:51:21;14.07;;;12.87;;
727;SDS011;347;48.780;9.158;2023-09-08T09:53:49;14.07;;;13.27;;
727;SDS011;347;48.780;9.158;2023-09-08T09:56:16;14.90;;;13.90;;
727;SDS011;347;48.780;9.158;2023-09-08T09:58:42;15.17;;;14.17;;
727;SDS011;347;48.780;9.158;2023-09-08T10:01:10;13.63;;;12.50;;
727;SDS011;347;48.780;9.158;2023-09-08T10:03:37;15.50;;;14.60;;
727;SDS011;347;48.780;9.158;2023-09-08T10:06:04;14.63;;;13.73;;
727;SDS011;347;48.780;9.158;2023-09-08T10:08:30;13.80;;;12.83;;
727;SDS011;347;48.780;9.158;2023-09-08T10:10:59;13.83;;;13.10;;
727;SDS011;347;48.780;9.158;2023-09-08T10:13:30;14.37;;;13.47;;
727;SDS011;347;48.780;9.158;2023-09-08T10:15:58;16.13;;;14.97;;
727;SDS011;347;48.780;9.158;2023-09-08T10:18:26;13.97;;;12.97;;
727;SDS011;347;48.780;9.158;2023-09-08T10:20:54;14.53;;;13.73;;
727;SDS011;347;48.780;9.158;2023-09-08T10:23:23;14.30;;;13.50;;
727;SDS011;347;48.780;9.158;2023-09-08T10:26:02;14.80;;;13.80;;
727;SDS011;347;48.780;9.158;2023-09-08T10:28:31;15.07;;;13.93;;
727;SDS011;347;48.780;9.158;2023-09-08T10:30:58;14.13;;;13.23;;
727;SDS011;347;48.780;9.158;2023-09-08T10:33:24;13.87;;;12.97;;
727;SDS011;347;48.780;9.158;2023-09-08T10:35:51;15.30;;;14.17;;
727;SDS011;347;48.780;9.158;2023-09-08T10:38:27;16.10;;;14.83;;
727;SDS011;347;48.780;9.158;2023-09-08T10:40:55;15.37;;;14.37;;
727;SDS011;347;48.780;9.158;2023-09-08T10:43:45;16.03;;;14.87;;
727;SDS011;347;48.780;9.158;2023-09-08T10:46:26;15.50;;;14.43;;
727;SDS011;347;48.780;9.158;2023-09-08T10:48:53;15.37;;;14.20;;
727;SDS011;347;48.780;9.158;2023-09-08T10:51:19;14.93;;;13.93;;
727;SDS011;347;48.780;9.158;2023-09-08T10:53:48;15.57;;;14.47;;
727;SDS011;347;48.780;9.158;2023-09-08T10:56:17;14.63;;;13.63;;
727;SDS011;347;48.780;9.158;2023-09-08T10:58:43;15.30;;;14.10;;
727;SDS011;347;48.780;9.158;2023-09-08T11:01:19;14.50;;;13.50;;
727;SDS011;347;48.780;9.158;2023-09-08T11:03:52;14.60;;;13.90;;
727;SDS011;347;48.780;9.158;2023-09-08T11:06:19;14.90;;;13.80;;
727;SDS011;347;48.780;9.158;2023-09-08T11:08:49;15.40;;;14.30;;
727;SDS011;347;48.780;9.158;2023-09-08T11:11:18;15.00;;;14.10;;
727;SDS011;347;48.780;9.158;2023-09-08T11:13:44;15.07;;;14.07;;
727;SDS011;347;48.780;9.158;2023-09-08T11:16:13;15.43;;;14.40;;
727;SDS011;347;48.780;9.158;2023-09-08T11:18:40;13.60;;;13.00;;
727;SDS011;347;48.780;9.158;2023-09-08T11:21:07;15.00;;;14.20;;
727;SDS011;347;48.780;9.158;2023-09-08T11:23:34;15.80;;;14.97;;
727;SDS011;347;48.780;9.158;2023-09-08T11:25:59;16.10;;;15.20;;
727;SDS011;347;48.780;9.158;2023-09-08T11:28:26;16.23;;;15.23;;
727;SDS011;347;48.780;9.158;2023-09-08T11:30:53;16.33;;;15.33;;
727;SDS011;347;48.780;9.158;2023-09-08T11:33:20;16.40;;;15.37;;
727;SDS011;347;48.780;9.158;2023-09-08T11:35:53;15.27;;;14.30;;
727;SDS011;347;48.780;9.158;2023-09-08T11:38:26;13.77;;;12.87;;
727;SDS011;347;48.780;9.158;2023-09-08T11:40:53;14.73;;;13.57;;
727;SDS011;347;48.780;9.158;2023-09-08T11:43:20;14.10;;;13.20;;
727;SDS011;347;48.780;9.158;2023-09-08T11:45:46;14.30;;;13.50;;
727;SDS011;347;48.780;9.158;2023-09-08T11:48:13;16.70;;;15.60;;
727;SDS011;347;48.780;9.158;2023-09-08T11:50:40;14.43;;;13.53;;
727;SDS011;347;48.780;9.158;2023-09-08T11:53:06;13.37;;;12.67;;
727;SDS011;347;48.780;9.158;2023-09-08T11:55:32;14.53;;;13.63;;
727;SDS011;347;48.780;9.158;2023-09-08T11:57:58;14.27;;;13.47;;
727;SDS011;347;48.780;9.158;2023-09-08T12:00:26;14.17;;;13.23;;
727;SDS011;347;48.780;9.158;2023-09-08T12:02:52;14.57;;;13.53;;
727;SDS011;347;48.780;9.158;2023-09-08T12:05:24;14.93;;;14.03;;
727;SDS011;347;48.780;9.158;2023-09-08T12:07:51;14.50;;;13.53;;
727;SDS011;347;48.780;9.158;2023-09-08T12:10:18;13.23;;;12.43;;
727;SDS011;347;48.780;9.158;2023-09-08T12:12:50;13.67;;;12.53;;
727;SDS011;347;48.780;9.158;2023-09-08T12:15:31;14.57;;;13.43;;
727;SDS011;347;48.780;9.158;2023-09-08T12:18:01;13.13;;;12.30;;
727;SDS011;347;48.780;9.158;2023-09-08T12:20:28;14.00;;;13.00;;
727;SDS011;347;48.780;9.158;2023-09-08T12:22:56;13.20;;;12.40;;
727;SDS011;347;48.780;9.158;2023-09-08T12:25:24;13.53;;;12.73;;
727;SDS011;347;48.780;9.158;2023-09-08T12:27:49;14.47;;;13.37;;
727;SDS011;347;48.780;9.158;2023-09-08T12:30:20;14.17;;;13.27;;
727;SDS011;347;48.780;9.158;2023-09-08T12:32:49;14.07;;;13.17;;
727;SDS011;347;48.780;9.158;2023-09-08T12:35:20;14.17;;;13.27;;
727;SDS011;347;48.780;9.158;2023-09-08T12:37:47;14.23;;;13.20;;
727;SDS011;347;48.780;9.158;2023-09-08T12:40:27;13.13;;;12.43;;
727;SDS011;347;48.780;9.158;2023-09-08T12:42:53;13.60;;;12.90;;
727;SDS011;347;48.780;9.158;2023-09-08T12:45:22;12.70;;;11.90;;
727;SDS011;347;48.780;9.158;2023-09-08T12:47:48;13.90;;;13.00;;
727;SDS011;347;48.780;9.158;2023-09-08T12:50:14;12.47;;;11.50;;
727;SDS011;347;48.780;9.158;2023-09-08T12:52:40;13.60;;;12.70;;
727;SDS011;347;48.780;9.158;2023-09-08T12:55:06;12.30;;;11.50;;
727;SDS011;347;48.780;9.158;2023-09-08T12:57:32;12.67;;;11.80;;
727;SDS011;347;48.780;9.158;2023-09-08T12:59:58;13.30;;;12.30;;
727;SDS011;347;48.780;9.158;2023-09-08T13:02:23;12.20;;;11.40;;
727;SDS011;347;48.780;9.158;2023-09-08T13:04:49;12.00;;;11.40;;
727;SDS011;347;48.780;9.158;2023-09-08T13:07:15;11.60;;;10.80;;
727;SDS011;347;48.780;9.158;2023-09-08T13:09:41;11.00;;;10.30;;
727;SDS011;347;48.780;9.158;2023-09-08T13:12:06;11.20;;;10.40;;
727;SDS011;347;48.780;9.158;2023-09-08T13:14:34;12.03;;;11.30;;
727;SDS011;347;48.780;9.158;2023-09-08T13:17:00;12.63;;;11.73;;
727;SDS011;347;48.780;9.158;2023-09-08T13:19:25;13.30;;;12.40;;
727;SDS011;347;48.780;9.158;2023-09-08T13:21:51;12.90;;;11.90;;
727;SDS011;347;48.780;9.158;2023-09-08T13:24:19;12.37;;;11.67;;
727;SDS011;347;48.780;9.158;2023-09-08T13:26:46;12.63;;;11.73;;
727;SDS011;347;48.780;9.158;2023-09-08T13:29:12;12.67;;;11.63;;
727;SDS011;347;48.780;9.158;2023-09-08T13:31:38;11.83;;;11.13;;
727;SDS011;347;48.780;9.158;2023-09-08T13:34:03;12.07;;;11.27;;
727;SDS011;347;48.780;9.158;2023-09-08T13:36:29;12.07;;;11.30;;
727;SDS011;347;48.780;9.158;2023-09-08T13:38:57;11.93;;;11.23;;
727;SDS011;347;48.780;9.158;2023-09-08T13:44:10;11.60;;;10.90;;
727;SDS011;347;48.780;9.158;2023-09-08T13:46:35;12.80;;;11.80;;
727;SDS011;347;48.780;9.158;2023-09-08T13:49:01;12.73;;;11.50;;
727;SDS011;347;48.780;9.158;2023-09-08T13:51:26;12.27;;;11.27;;
727;SDS011;347;48.780;9.158;2023-09-08T13:53:52;12.43;;;11.63;;
727;SDS011;347;48.780;9.158;2023-09-08T13:56:17;11.73;;;11.03;;
727;SDS011;347;48.780;9.158;2023-09-08T13:58:43;11.70;;;11.10;;
727;SDS011;347;48.780;9.158;2023-09-08T14:01:10;10.43;;;9.73;;
727;SDS011;347;48.780;9.158;2023-09-08T14:03:36;10.57;;;9.97;;
727;SDS011;347;48.780;9.158;2023-09-08T14:06:02;9.93;;;9.30;;
727;SDS011;347;48.780;9.158;2023-09-08T14:08:30;11.13;;;10.43;;
727;SDS011;347;48.780;9.158;2023-09-08T14:10:59;9.93;;;9.33;;
727;SDS011;347;48.780;9.158;2023-09-08T14:13:24;11.80;;;10.63;;
727;SDS011;347;48.780;9.158;2023-09-08T14:15:50;11.83;;;10.83;;
727;SDS011;347;48.780;9.158;2023-09-08T14:18:16;10.83;;;10.23;;
727;SDS011;347;48.780;9.158;2023-09-08T14:20:41;11.30;;;10.47;;
727;SDS011;347;48.780;9.158;2023-09-08T14:23:07;11.23;;;10.43;;
727;SDS011;347;48.780;9.158;2023-09-08T14:25:33;11.97;;;10.97;;
727;SDS011;347;48.780;9.158;2023-09-08T14:28:00;11.27;;;10.53;;
727;SDS011;347;48.780;9.158;2023-09-08T14:30:28;10.70;;;10.10;;
